Time;durP1;ratioP1;P1;durP2;ratioP2;P2;SDS_P1;SDS_P2;PMS_P1;PMS_P2;Temp;Humidity;BMP_temperature;BMP_pressure;BME280_temperature;BME280_humidity;BME280_pressure;Samples;Min_cycle;Max_cycle;Signal;HPM_P1;HPM_P2
2023/07/22 00:09:49;;;;;;;4.33;2.50;;;;;;;18.17;57.48;99067.69;7226288;40;20290;31
2023/07/22 00:20:25;;;;;;;2.63;2.43;;;;;;;18.57;56.65;99060.94;7268011;39;20260;31
2023/07/22 00:25:45;;;;;;;4.20;2.50;;;;;;;18.52;57.59;99073.59;7252788;40;20268;31
2023/07/22 00:31:15;;;;;;;2.35;2.10;;;;;;;18.47;57.38;99066.06;7237573;40;20264;31
2023/07/22 00:36:51;;;;;;;3.37;2.00;;;;;;;18.62;57.13;99055.66;7174217;40;20255;31
2023/07/22 00:42:11;;;;;;;2.30;2.10;;;;;;;18.69;56.43;99053.72;7194670;40;20310;31
2023/07/22 00:47:43;;;;;;;3.20;2.30;;;;;;;18.76;57.47;99045.47;7228911;40;20258;31
2023/07/22 00:53:18;;;;;;;3.13;2.30;;;;;;;18.65;58.57;99040.75;7142907;40;20267;31
2023/07/22 00:58:49;;;;;;;2.40;2.20;;;;;;;18.40;59.00;99049.72;7193212;40;20356;31
2023/07/22 01:04:22;;;;;;;3.83;2.47;;;;;;;18.36;59.07;99047.63;7201279;40;20379;31
2023/07/22 01:09:54;;;;;;;3.10;2.20;;;;;;;18.43;59.46;99042.97;7202426;40;20262;31
2023/07/22 01:15:29;;;;;;;3.60;2.30;;;;;;;18.50;59.20;99041.03;7188193;40;20305;31
2023/07/22 01:21:04;;;;;;;3.15;2.20;;;;;;;18.55;58.73;99038.50;7135700;40;20243;31
2023/07/22 01:26:41;;;;;;;5.47;2.23;;;;;;;18.58;59.38;99042.69;7144852;40;20242;31
2023/07/22 01:32:12;;;;;;;3.23;2.23;;;;;;;18.46;60.06;99040.66;7171894;40;20246;31
2023/07/22 01:37:47;;;;;;;2.10;1.83;;;;;;;18.51;59.75;99031.78;7204528;40;20250;31
2023/07/22 01:43:23;;;;;;;3.33;2.10;;;;;;;18.39;60.25;99026.19;7141747;40;20275;31
2023/07/22 01:54:02;;;;;;;2.52;2.10;;;;;;;18.44;59.74;99036.44;7191833;40;20369;31
2023/07/22 02:04:42;;;;;;;3.95;2.40;;;;;;;18.35;58.89;99022.25;7279392;40;20291;31
2023/07/22 02:15:19;;;;;;;3.20;2.30;;;;;;;18.01;60.03;99018.06;7308097;39;20376;31
2023/07/22 02:20:55;;;;;;;2.60;2.03;;;;;;;17.97;60.28;99015.97;7234953;40;20344;31
2023/07/22 02:26:12;;;;;;;4.00;2.65;;;;;;;18.08;59.57;99030.84;7233630;40;20257;31
2023/07/22 02:31:29;;;;;;;2.33;2.13;;;;;;;18.08;59.17;99031.66;7214810;40;20429;31
2023/07/22 02:37:02;;;;;;;3.20;2.20;;;;;;;18.21;59.22;99030.75;7207146;40;20257;31
2023/07/22 02:42:22;;;;;;;4.35;2.10;;;;;;;18.25;58.40;99035.56;7193891;40;20438;31
2023/07/22 02:47:50;;;;;;;3.10;2.45;;;;;;;18.31;59.07;99039.28;6961127;40;21541;31
2023/07/22 02:53:26;;;;;;;2.50;2.20;;;;;;;18.21;59.37;99036.22;7187063;40;21204;31
2023/07/22 02:58:47;;;;;;;3.63;2.50;;;;;;;18.25;59.36;99034.72;7252326;40;20729;31
2023/07/22 03:09:27;;;;;;;4.03;2.23;;;;;;;18.08;59.10;99039.03;7212495;40;20250;31
2023/07/22 03:14:48;;;;;;;2.57;2.37;;;;;;;18.07;59.50;99042.78;7211845;40;20262;31
2023/07/22 03:20:12;;;;;;;3.73;2.27;;;;;;;17.83;60.01;99042.47;7264005;40;20319;31
2023/07/22 03:25:45;;;;;;;4.65;2.40;;;;;;;17.51;61.52;99048.87;7253309;40;20331;31
2023/07/22 03:31:17;;;;;;;2.90;2.30;;;;;;;17.39;61.85;99050.59;7292538;40;20364;31
2023/07/22 03:36:38;;;;;;;2.95;2.50;;;;;;;17.45;61.88;99038.84;7212534;40;20441;31
2023/07/22 03:47:16;;;;;;;2.70;2.30;;;;;;;17.42;61.67;99042.81;7238272;40;21236;31
2023/07/22 03:52:48;;;;;;;3.97;2.40;;;;;;;17.43;62.41;99051.81;7232318;40;20273;31
2023/07/22 03:58:06;;;;;;;3.30;2.67;;;;;;;17.40;61.68;99044.09;7228042;40;20286;31
2023/07/22 04:03:38;;;;;;;2.75;2.30;;;;;;;17.28;62.09;99045.81;7234515;40;20245;31
2023/07/22 04:08:56;;;;;;;3.67;2.40;;;;;;;17.49;61.39;99042.81;7221256;40;20388;31
2023/07/22 04:14:12;;;;;;;3.07;2.63;;;;;;;17.67;61.13;99036.69;7262186;40;20342;31
2023/07/22 04:19:44;;;;;;;7.45;2.80;;;;;;;17.68;62.06;99033.75;7276648;40;20272;31
2023/07/22 04:25:02;;;;;;;4.13;2.73;;;;;;;17.69;61.36;99049.03;7241255;40;20400;31
2023/07/22 04:30:35;;;;;;;4.05;2.50;;;;;;;17.62;62.36;99044.69;7273333;40;20275;31
2023/07/22 04:36:10;;;;;;;3.00;2.20;;;;;;;17.56;62.85;99040.87;7210306;40;20524;31
2023/07/22 04:41:42;;;;;;;5.40;2.30;;;;;;;17.76;61.53;99038.97;7245592;40;20439;31
2023/07/22 04:47:03;;;;;;;4.40;2.63;;;;;;;17.87;62.35;99045.59;7236646;40;20354;31
2023/07/22 04:52:39;;;;;;;5.65;2.40;;;;;;;17.95;61.33;99051.66;7231307;40;20252;31
2023/07/22 04:58:13;;;;;;;2.80;1.90;;;;;;;18.00;60.63;99049.09;7192602;40;21274;31
2023/07/22 05:03:31;;;;;;;3.70;2.10;;;;;;;18.11;60.71;99046.75;7179718;40;20620;31
2023/07/22 05:09:06;;;;;;;2.77;2.30;;;;;;;18.01;62.02;99045.34;7214147;40;20250;31
2023/07/22 05:14:41;;;;;;;3.87;2.37;;;;;;;17.98;62.45;99053.97;7225244;40;20368;31
2023/07/22 05:20:03;;;;;;;4.63;2.10;;;;;;;18.07;61.74;99049.09;7174734;40;20347;31
2023/07/22 05:25:39;;;;;;;2.83;2.30;;;;;;;18.22;61.86;99055.06;7173473;40;20305;31
2023/07/22 05:36:04;;;;;;;3.03;2.00;;;;;;;18.52;61.49;99068.12;7211850;40;20282;31
2023/07/22 05:46:39;;;;;;;3.40;2.33;;;;;;;18.66;60.66;99073.28;7280780;39;20275;31
2023/07/22 05:57:17;;;;;;;3.55;2.50;;;;;;;18.79;60.08;99077.78;7276907;40;20250;31
2023/07/22 06:07:57;;;;;;;6.40;2.50;;;;;;;18.95;59.39;99080.00;7237392;40;20279;31
2023/07/22 06:13:33;;;;;;;4.90;2.57;;;;;;;19.05;60.31;99082.19;7272416;40;20269;31
2023/07/22 06:18:53;;;;;;;4.80;2.30;;;;;;;19.12;60.11;99091.19;7280619;39;20260;31
2023/07/22 06:24:24;;;;;;;6.70;2.40;;;;;;;19.15;60.01;99094.31;7316121;39;22198;31
2023/07/22 06:29:41;;;;;;;4.20;2.80;;;;;;;19.28;59.20;99096.91;7298968;39;20338;31
2023/07/22 06:35:13;;;;;;;7.20;2.80;;;;;;;19.58;58.66;99097.06;7288603;39;20261;31
2023/07/22 06:40:46;;;;;;;2.90;2.40;;;;;;;19.60;59.41;99099.56;7251404;40;20367;31
2023/07/22 06:46:21;;;;;;;3.95;2.40;;;;;;;19.74;57.29;99101.09;7255840;40;20253;31
2023/07/22 06:51:41;;;;;;;3.20;2.40;;;;;;;19.98;58.15;99102.06;7240744;40;20379;31
2023/07/22 07:02:23;;;;;;;4.66;2.52;;;;;;;20.37;56.72;99096.09;7221843;40;20281;31
2023/07/22 07:12:47;;;;;;;4.73;2.60;;;;;;;20.76;55.10;99099.31;7279062;39;20751;31
2023/07/22 07:18:08;;;;;;;2.90;2.30;;;;;;;20.98;53.66;99097.69;7316576;39;20314;31
2023/07/22 07:23:40;;;;;;;2.53;2.30;;;;;;;21.06;53.59;99103.66;7314196;39;21220;31
2023/07/22 07:28:57;;;;;;;3.13;2.37;;;;;;;21.18;53.53;99098.22;7275064;40;20264;31
2023/07/22 07:34:15;;;;;;;2.77;2.00;;;;;;;21.35;54.00;99104.66;7294449;39;20357;31
2023/07/22 07:39:48;;;;;;;4.25;2.70;;;;;;;21.39;53.01;99102.28;7296964;40;20252;31
2023/07/22 07:45:07;;;;;;;2.50;1.95;;;;;;;21.59;53.88;99095.34;7221848;40;20288;31
2023/07/22 07:50:24;;;;;;;18.87;3.80;;;;;;;21.74;53.80;99094.03;7275568;40;20259;31
2023/07/22 07:55:58;;;;;;;4.20;2.20;;;;;;;21.86;52.54;99090.16;7250871;40;22281;31
2023/07/22 08:01:33;;;;;;;8.40;2.50;;;;;;;22.14;52.54;99096.81;7233063;40;20365;31
2023/07/22 08:06:50;;;;;;;5.65;2.30;;;;;;;22.38;51.55;99095.63;7243963;40;20249;31
2023/07/22 08:12:26;;;;;;;4.47;2.23;;;;;;;22.55;51.36;99092.97;7235842;40;20241;31
2023/07/22 08:17:43;;;;;;;3.92;2.20;;;;;;;22.51;50.93;99103.59;7221634;40;20256;31
2023/07/22 08:23:15;;;;;;;3.67;2.22;;;;;;;22.32;52.42;99097.47;7259581;40;20268;31
2023/07/22 08:33:52;;;;;;;5.08;2.22;;;;;;;22.28;51.27;99099.03;7253335;40;20434;31
2023/07/22 08:44:34;;;;;;;5.53;2.40;;;;;;;22.11;52.30;99098.16;7249444;39;20272;31
2023/07/22 08:55:12;;;;;;;6.93;2.25;;;;;;;22.34;51.29;99097.22;7265293;40;20417;31
2023/07/22 09:05:48;;;;;;;4.37;2.33;;;;;;;22.90;50.16;99085.38;7287097;39;21096;31
2023/07/22 09:11:24;;;;;;;5.07;2.30;;;;;;;23.34;50.37;99097.38;7256588;40;20264;31
2023/07/22 09:16:59;;;;;;;4.00;2.28;;;;;;;23.43;48.92;99084.03;7255067;40;20350;31
2023/07/22 09:22:16;;;;;;;4.15;2.50;;;;;;;23.20;50.15;99082.28;7256917;40;20350;31
2023/07/22 09:27:50;;;;;;;4.53;2.40;;;;;;;23.47;49.56;99085.22;7277887;40;20329;31
2023/07/22 09:33:32;;;;;;;2.92;2.10;;;;;;;23.26;50.08;99079.34;7286523;39;20327;31
2023/07/22 09:39:13;;;;;;;5.90;2.40;;;;;;;23.28;50.03;99071.69;7273303;40;20368;31
2023/07/22 09:44:49;;;;;;;2.75;2.08;;;;;;;23.48;48.58;99070.34;7212721;40;20332;31
2023/07/22 09:50:27;;;;;;;3.53;1.90;;;;;;;23.22;45.65;99058.94;7195552;40;20282;31
2023/07/22 09:55:59;;;;;;;2.20;2.00;;;;;;;23.08;46.08;99065.84;7036603;40;20260;31
2023/07/22 10:01:32;;;;;;;4.47;1.80;;;;;;;22.99;45.41;99072.88;7217251;40;20384;31
2023/07/22 10:07:04;;;;;;;4.75;2.10;;;;;;;22.92;45.05;99062.03;7190210;40;20279;31
2023/07/22 10:12:36;;;;;;;2.40;2.00;;;;;;;23.14;45.58;99069.53;7102339;41;21699;31
2023/07/22 10:18:10;;;;;;;2.12;1.86;;;;;;;23.34;44.62;99056.91;7151545;40;20322;31
2023/07/22 10:23:45;;;;;;;2.62;2.00;;;;;;;23.91;44.31;99053.91;7142692;40;20342;31
2023/07/22 10:29:19;;;;;;;5.43;2.12;;;;;;;23.57;44.43;99058.66;7212996;40;20265;31
2023/07/22 10:34:53;;;;;;;2.83;2.17;;;;;;;23.80;44.21;99041.06;7237252;40;21044;31
2023/07/22 10:40:29;;;;;;;2.47;2.00;;;;;;;24.52;42.21;99044.41;7195750;40;20285;31
2023/07/22 10:46:04;;;;;;;3.95;2.00;;;;;;;24.63;40.79;99031.53;7146447;40;20252;31
2023/07/22 10:51:40;;;;;;;4.40;2.10;;;;;;;25.23;41.38;99039.50;7124867;40;20250;31
2023/07/22 10:57:17;;;;;;;6.00;1.90;;;;;;;25.62;38.94;99020.75;7171604;40;20258;31
2023/07/22 11:02:38;;;;;;;2.75;1.77;;;;;;;25.67;38.47;99028.22;7125792;40;20259;31
2023/07/22 11:08:10;;;;;;;3.70;1.90;;;;;;;25.36;39.34;99033.50;7188555;40;20281;31
2023/07/22 11:13:40;;;;;;;4.25;1.95;;;;;;;25.42;39.24;99020.59;7217488;40;20451;31
2023/07/22 11:24:18;;;;;;;2.53;1.90;;;;;;;25.35;39.08;99014.47;7300445;39;20276;31
2023/07/22 11:29:53;;;;;;;4.05;2.00;;;;;;;24.95;39.82;99015.03;7256092;40;20272;31
2023/07/22 11:35:11;;;;;;;3.17;2.00;;;;;;;25.07;39.11;99008.22;7250594;40;20281;31
2023/07/22 11:45:51;;;;;;;3.33;2.12;;;;;;;25.72;37.85;99003.37;7245262;39;21331;31
2023/07/22 11:56:12;;;;;;;2.30;2.00;;;;;;;26.19;36.53;98992.22;7277705;40;21081;31
2023/07/22 12:01:44;;;;;;;2.50;2.30;;;;;;;26.56;36.13;98978.19;7277266;40;20320;31
2023/07/22 12:12:18;;;;;;;3.30;2.30;;;;;;;26.56;35.16;98969.91;7271725;40;21173;31
2023/07/22 12:18:00;;;;;;;5.60;2.40;;;;;;;26.50;35.44;98976.53;7222847;40;20536;31
2023/07/22 12:23:35;;;;;;;2.65;2.15;;;;;;;26.47;35.00;98972.37;7234852;40;20276;31
2023/07/22 12:29:10;;;;;;;2.58;2.37;;;;;;;26.27;34.20;98975.13;7238422;40;20444;31
2023/07/22 12:34:46;;;;;;;3.40;2.40;;;;;;;26.26;35.52;98970.69;7235529;40;20272;31
2023/07/22 12:40:19;;;;;;;3.70;2.50;;;;;;;26.59;35.43;98961.06;7160323;40;20428;31
2023/07/22 12:45:51;;;;;;;4.75;2.45;;;;;;;26.37;35.84;98961.34;7146453;40;20362;31
2023/07/22 12:51:27;;;;;;;3.40;2.45;;;;;;;26.44;34.19;98956.34;7165653;40;20439;31
2023/07/22 12:56:47;;;;;;;2.70;2.15;;;;;;;26.28;35.28;98949.16;7194646;40;20268;31
2023/07/22 13:02:22;;;;;;;3.80;2.37;;;;;;;26.25;34.97;98952.44;7193912;40;20329;31
2023/07/22 13:07:56;;;;;;;4.75;2.40;;;;;;;26.46;34.62;98946.66;7142250;40;20324;31
2023/07/22 13:13:16;;;;;;;4.27;2.47;;;;;;;26.32;34.91;98944.75;7165849;40;20281;31
2023/07/22 13:18:36;;;;;;;3.40;2.10;;;;;;;26.08;34.90;98955.44;7125316;40;20259;31
2023/07/22 13:24:12;;;;;;;2.60;2.25;;;;;;;25.95;35.32;98937.44;7210354;40;20261;31
2023/07/22 13:29:45;;;;;;;2.88;2.20;;;;;;;26.10;35.15;98944.94;7226226;40;20472;31
2023/07/22 13:40:22;;;;;;;3.53;2.40;;;;;;;26.32;35.08;98948.34;7214223;40;21273;31
2023/07/22 13:45:42;;;;;;;3.05;2.45;;;;;;;26.45;35.11;98946.97;7230545;40;20393;31
2023/07/22 13:51:02;;;;;;;4.00;2.90;;;;;;;26.42;35.18;98941.97;7263457;40;20435;31
2023/07/22 13:56:35;;;;;;;4.40;2.60;;;;;;;26.54;34.64;98923.19;7275163;40;20685;31
2023/07/22 14:01:52;;;;;;;4.22;2.30;;;;;;;26.52;34.86;98928.16;7194710;40;21343;31
2023/07/22 14:07:27;;;;;;;3.45;2.70;;;;;;;26.55;35.14;98922.06;7222068;40;20428;31
2023/07/22 14:13:03;;;;;;;4.45;2.80;;;;;;;26.57;34.33;98922.62;7214827;40;20276;31
2023/07/22 14:18:20;;;;;;;5.40;2.90;;;;;;;26.55;34.62;98902.69;7193507;40;20262;31
2023/07/22 14:23:55;;;;;;;4.25;2.90;;;;;;;26.67;34.24;98900.50;7196169;40;20269;31
2023/07/22 14:29:31;;;;;;;3.30;2.40;;;;;;;26.98;34.64;98892.16;7171385;40;20286;31
2023/07/22 14:35:06;;;;;;;2.90;2.60;;;;;;;27.01;34.29;98897.13;7154964;40;20339;31
2023/07/22 14:40:23;;;;;;;3.34;2.66;;;;;;;27.19;34.71;98902.06;7115758;40;20521;31
2023/07/22 14:45:59;;;;;;;4.25;2.80;;;;;;;27.18;34.40;98894.88;7170948;40;20254;31
2023/07/22 14:51:16;;;;;;;3.87;2.60;;;;;;;27.23;33.69;98898.44;7135103;40;20418;31
2023/07/22 14:56:48;;;;;;;4.80;2.95;;;;;;;26.96;34.03;98892.44;7214262;40;20261;31
2023/07/22 15:02:24;;;;;;;4.82;2.70;;;;;;;26.79;34.18;98892.72;7165041;40;20549;31
2023/07/22 15:07:59;;;;;;;6.32;2.70;;;;;;;26.95;33.98;98879.72;7149937;40;20282;31
2023/07/22 15:13:16;;;;;;;3.55;2.60;;;;;;;27.11;33.57;98891.59;7156487;40;20393;31
2023/07/22 15:18:49;;;;;;;5.94;2.58;;;;;;;27.04;34.23;98888.25;7172301;40;20270;31
2023/07/22 15:24:21;;;;;;;4.48;2.52;;;;;;;27.04;33.51;98883.56;7143019;40;20278;31
2023/07/22 15:29:38;;;;;;;5.20;2.60;;;;;;;27.33;34.04;98889.28;7201153;40;20269;31
2023/07/22 15:35:11;;;;;;;3.25;2.50;;;;;;;27.30;33.16;98887.91;7275301;40;20284;31
2023/07/22 15:40:28;;;;;;;4.60;2.62;;;;;;;27.10;33.42;98881.63;7235310;40;20352;31
2023/07/22 15:46:01;;;;;;;4.15;2.58;;;;;;;26.97;33.47;98883.03;7224247;40;20257;31
2023/07/22 15:51:33;;;;;;;4.40;2.45;;;;;;;26.89;33.34;98891.91;7175253;40;20281;31
2023/07/22 15:57:05;;;;;;;8.85;2.90;;;;;;;26.67;33.37;98881.13;7173662;40;21841;31
2023/07/22 16:02:22;;;;;;;3.45;2.60;;;;;;;26.70;33.31;98885.28;7167214;40;20237;31
2023/07/22 16:07:56;;;;;;;5.65;3.15;;;;;;;26.69;33.71;98878.91;7154801;40;20265;31
2023/07/22 16:13:16;;;;;;;3.43;2.80;;;;;;;26.82;33.24;98875.56;7223441;40;20252;31
2023/07/22 16:18:31;;;;;;;3.25;2.60;;;;;;;26.79;33.23;98869.78;7212610;40;20261;31
2023/07/22 16:24:04;;;;;;;3.50;2.70;;;;;;;26.82;34.00;98864.50;7200252;40;20274;31
2023/07/22 16:29:25;;;;;;;4.45;2.90;;;;;;;26.92;34.07;98866.44;7170499;40;20257;31
2023/07/22 16:34:45;;;;;;;5.70;2.60;;;;;;;26.97;33.86;98863.66;7194247;40;20412;31
2023/07/22 16:40:21;;;;;;;4.03;2.85;;;;;;;26.95;32.94;98867.81;7201859;40;20262;31
2023/07/22 16:45:53;;;;;;;3.40;2.65;;;;;;;27.06;33.48;98861.16;6980470;40;20246;31
2023/07/22 16:51:15;;;;;;;3.33;2.60;;;;;;;26.99;32.96;98853.13;7260361;40;22125;31
2023/07/22 16:56:44;;;;;;;2.80;2.40;;;;;;;26.90;32.79;98855.66;7200462;40;20303;31
2023/07/22 17:02:02;;;;;;;2.58;2.37;;;;;;;26.91;33.42;98856.47;7203601;40;20261;31
2023/07/22 17:07:23;;;;;;;5.17;2.80;;;;;;;26.73;33.48;98859.81;7232362;40;20268;31
2023/07/22 17:12:54;;;;;;;5.30;2.72;;;;;;;26.52;32.84;98847.12;7216621;40;20284;31
2023/07/22 17:18:26;;;;;;;4.55;2.25;;;;;;;26.37;33.50;98853.53;7286020;40;20361;31
2023/07/22 17:23:44;;;;;;;3.55;2.67;;;;;;;26.28;34.09;98857.97;7243153;40;21309;31
2023/07/22 17:29:19;;;;;;;4.93;3.65;;;;;;;26.21;33.44;98840.81;7240535;40;20261;31
2023/07/22 17:34:37;;;;;;;6.68;4.28;;;;;;;26.25;34.79;98842.75;7257976;40;20281;31
2023/07/22 17:45:14;;;;;;;4.00;3.12;;;;;;;26.00;33.94;98829.72;7255015;40;20417;31
2023/07/22 17:50:49;;;;;;;3.93;3.00;;;;;;;25.97;34.83;98818.41;7260681;40;20315;31
2023/07/22 17:56:21;;;;;;;3.15;2.70;;;;;;;25.92;35.05;98821.16;7201616;40;20272;31
2023/07/22 18:01:59;;;;;;;3.47;2.73;;;;;;;25.78;34.91;98820.03;7236095;40;20257;31
2023/07/22 18:07:18;;;;;;;2.90;2.60;;;;;;;25.68;34.59;98812.56;7204784;40;20274;31
2023/07/22 18:12:53;;;;;;;7.78;2.40;;;;;;;25.55;35.13;98816.69;7224768;40;20427;31
2023/07/22 18:18:28;;;;;;;3.40;2.80;;;;;;;25.53;34.67;98815.28;7174592;40;20289;31
2023/07/22 18:24:01;;;;;;;3.85;2.80;;;;;;;25.43;35.13;98806.97;7176062;40;20283;31
2023/07/22 18:34:38;;;;;;;5.60;3.30;;;;;;;25.30;36.40;98813.00;7170881;40;21067;31
2023/07/22 18:45:14;;;;;;;3.17;2.87;;;;;;;25.18;37.02;98810.50;7218979;40;21300;31
2023/07/22 18:50:50;;;;;;;3.86;2.78;;;;;;;25.17;37.75;98813.50;7193897;40;20247;31
2023/07/22 18:56:10;;;;;;;4.83;2.90;;;;;;;25.06;37.19;98816.22;7161179;40;20425;31
2023/07/22 19:01:27;;;;;;;4.17;3.00;;;;;;;24.92;38.15;98817.84;7133308;40;20270;31
2023/07/22 19:07:00;;;;;;;5.53;3.03;;;;;;;24.75;39.62;98816.34;7157458;40;20300;31
2023/07/22 19:17:21;;;;;;;5.12;3.10;;;;;;;24.41;39.98;98811.16;7198938;40;21179;31
2023/07/22 19:27:57;;;;;;;4.45;2.92;;;;;;;24.04;41.17;98827.69;7285359;39;21384;31
2023/07/22 19:33:17;;;;;;;4.68;3.45;;;;;;;23.87;42.31;98834.41;7256613;40;20298;31
2023/07/22 19:38:52;;;;;;;3.34;2.84;;;;;;;23.68;42.61;98825.69;7227593;40;20253;31
2023/07/22 19:44:28;;;;;;;3.95;2.90;;;;;;;23.53;42.84;98831.03;7215127;40;20257;31
2023/07/22 19:50:03;;;;;;;3.35;3.00;;;;;;;23.43;42.03;98830.91;7165869;40;20262;31
2023/07/22 19:55:23;;;;;;;3.90;3.00;;;;;;;23.30;42.71;98837.66;7253614;40;20249;31
2023/07/22 20:01:01;;;;;;;4.15;3.25;;;;;;;23.13;42.92;98843.19;7214804;40;20285;31
2023/07/22 20:06:20;;;;;;;4.60;2.90;;;;;;;22.99;43.51;98847.44;7172179;40;20451;31
2023/07/22 20:11:37;;;;;;;3.20;2.90;;;;;;;22.89;43.53;98858.28;7179630;40;20680;31
2023/07/22 20:22:14;;;;;;;3.67;3.10;;;;;;;22.65;44.74;98856.81;7256538;40;21119;31
2023/07/22 20:27:49;;;;;;;3.97;3.10;;;;;;;22.52;44.53;98860.75;7256330;40;20276;31
2023/07/22 20:33:09;;;;;;;5.25;3.50;;;;;;;22.51;44.39;98855.53;7248313;40;20389;31
2023/07/22 20:43:43;;;;;;;5.10;3.20;;;;;;;22.43;44.36;98859.50;7221301;40;21544;31
2023/07/22 20:49:03;;;;;;;6.80;2.90;;;;;;;22.44;44.01;98867.50;7247474;40;20491;31
2023/07/22 20:54:35;;;;;;;4.24;3.46;;;;;;;22.35;44.30;98857.19;7254762;40;20281;31
2023/07/22 21:00:08;;;;;;;3.55;2.90;;;;;;;22.26;44.25;98856.78;7235448;40;20285;31
2023/07/22 21:10:41;;;;;;;4.15;2.75;;;;;;;22.18;44.84;98854.47;7212433;40;21201;31
2023/07/22 21:16:14;;;;;;;6.12;3.10;;;;;;;22.13;44.80;98848.03;7210748;40;20285;31
2023/07/22 21:26:50;;;;;;;3.75;2.92;;;;;;;22.02;45.23;98847.91;7315690;39;21153;31
2023/07/22 21:37:27;;;;;;;3.47;2.83;;;;;;;21.93;44.47;98843.91;7280441;40;20368;31
2023/07/22 21:42:47;;;;;;;5.90;2.53;;;;;;;21.93;44.96;98849.38;7212108;40;21820;31
2023/07/22 21:53:25;;;;;;;3.90;2.72;;;;;;;21.75;45.26;98844.09;7314524;39;21154;31
2023/07/22 21:58:42;;;;;;;3.47;2.90;;;;;;;21.69;46.01;98845.06;7213521;40;20333;31
2023/07/22 22:04:17;;;;;;;4.20;3.10;;;;;;;21.69;46.29;98846.97;7248934;40;20252;31
2023/07/22 22:10:05;;;;;;;5.77;3.33;;;;;;;21.71;45.50;98847.56;7195735;40;20271;31
2023/07/22 22:20:44;;;;;;;10.85;3.87;;;;;;;21.68;45.82;98843.41;7161977;40;20270;31
2023/07/22 22:26:32;;;;;;;5.03;3.20;;;;;;;21.67;46.00;98843.66;7171827;40;20262;31
2023/07/22 22:37:08;;;;;;;4.93;3.05;;;;;;;21.66;46.02;98836.50;7272799;40;20280;31
2023/07/22 22:42:41;;;;;;;6.43;3.22;;;;;;;21.70;45.81;98834.94;7223025;40;20261;31
2023/07/22 22:48:16;;;;;;;5.75;3.90;;;;;;;21.64;46.07;98831.25;7146963;40;20436;31
2023/07/22 22:53:33;;;;;;;3.53;3.10;;;;;;;21.62;45.73;98835.34;7128466;40;20254;31
2023/07/22 22:59:10;;;;;;;3.53;2.75;;;;;;;21.51;46.82;98832.41;7193019;40;20360;31
2023/07/22 23:04:42;;;;;;;3.45;2.80;;;;;;;21.53;46.36;98840.38;7134944;40;20265;31
2023/07/22 23:10:00;;;;;;;3.85;2.70;;;;;;;21.47;46.56;98833.97;7152366;40;20247;31
2023/07/22 23:15:30;;;;;;;5.78;3.44;;;;;;;21.40;46.94;98833.31;7204161;40;20249;31
2023/07/22 23:20:48;;;;;;;3.87;2.92;;;;;;;21.29;47.00;98834.16;7220630;40;20268;31
2023/07/22 23:26:19;;;;;;;3.90;3.28;;;;;;;21.21;47.70;98833.72;7213030;40;20257;31
2023/07/22 23:31:52;;;;;;;4.33;3.13;;;;;;;21.27;48.13;98828.09;7252616;40;20331;31
2023/07/22 23:37:24;;;;;;;3.10;2.80;;;;;;;21.23;47.41;98828.84;7239993;40;20276;31
2023/07/22 23:42:42;;;;;;;3.42;2.87;;;;;;;21.02;47.89;98822.06;7232974;40;20265;31
2023/07/22 23:48:17;;;;;;;3.58;2.90;;;;;;;20.88;49.39;98820.69;7017567;40;21508;31
2023/07/22 23:53:53;;;;;;;3.97;3.57;;;;;;;20.83;47.94;98820.59;7168581;40;20332;31
2023/07/22 23:59:10;;;;;;;5.83;3.07;;;;;;;20.81;48.38;98814.50;7169233;40;20353;31
